sensor_id;sensor_type;location;lat;lon;timestamp;P1;durP1;ratioP1;P2;durP2;ratioP2
45402;SDS011;47427;51.976;5.326;2022-07-03T00:02:22;6.47;;;4.70;;
45402;SDS011;47427;51.976;5.326;2022-07-03T00:05:45;6.43;;;4.60;;
45402;SDS011;47427;51.976;5.326;2022-07-03T00:09:07;6.97;;;5.03;;
45402;SDS011;47427;51.976;5.326;2022-07-03T00:12:29;8.63;;;4.85;;
45402;SDS011;47427;51.976;5.326;2022-07-03T00:15:52;10.18;;;5.50;;
45402;SDS011;47427;51.976;5.326;2022-07-03T00:19:14;6.13;;;5.30;;
45402;SDS011;47427;51.976;5.326;2022-07-03T00:22:37;7.82;;;4.88;;
45402;SDS011;47427;51.976;5.326;2022-07-03T00:26:05;7.68;;;4.78;;
45402;SDS011;47427;51.976;5.326;2022-07-03T00:29:30;8.35;;;5.00;;
45402;SDS011;47427;51.976;5.326;2022-07-03T00:33:03;6.45;;;5.00;;
45402;SDS011;47427;51.976;5.326;2022-07-03T00:39:56;6.57;;;5.15;;
45402;SDS011;47427;51.976;5.326;2022-07-03T00:43:19;6.80;;;5.22;;
45402;SDS011;47427;51.976;5.326;2022-07-03T00:46:42;10.15;;;5.10;;
45402;SDS011;47427;51.976;5.326;2022-07-03T00:50:10;7.18;;;4.80;;
45402;SDS011;47427;51.976;5.326;2022-07-03T00:53:32;6.43;;;5.22;;
45402;SDS011;47427;51.976;5.326;2022-07-03T00:56:57;6.40;;;5.70;;
45402;SDS011;47427;51.976;5.326;2022-07-03T01:00:23;8.45;;;5.75;;
45402;SDS011;47427;51.976;5.326;2022-07-03T01:03:45;8.75;;;5.53;;
45402;SDS011;47427;51.976;5.326;2022-07-03T01:07:17;7.80;;;6.05;;
45402;SDS011;47427;51.976;5.326;2022-07-03T01:11:04;9.02;;;6.05;;
45402;SDS011;47427;51.976;5.326;2022-07-03T01:18:38;5.65;;;5.05;;
45402;SDS011;47427;51.976;5.326;2022-07-03T01:22:36;7.35;;;5.50;;
45402;SDS011;47427;51.976;5.326;2022-07-03T01:26:09;7.50;;;5.25;;
45402;SDS011;47427;51.976;5.326;2022-07-03T01:30:18;10.88;;;5.65;;
45402;SDS011;47427;51.976;5.326;2022-07-03T01:33:31;7.97;;;5.47;;
45402;SDS011;47427;51.976;5.326;2022-07-03T01:36:54;6.28;;;5.22;;
45402;SDS011;47427;51.976;5.326;2022-07-03T01:40:21;9.68;;;6.13;;
45402;SDS011;47427;51.976;5.326;2022-07-03T01:43:49;10.88;;;5.97;;
45402;SDS011;47427;51.976;5.326;2022-07-03T01:47:17;11.43;;;6.45;;
45402;SDS011;47427;51.976;5.326;2022-07-03T01:50:40;8.18;;;6.95;;
45402;SDS011;47427;51.976;5.326;2022-07-03T01:54:04;7.97;;;5.53;;
45402;SDS011;47427;51.976;5.326;2022-07-03T01:57:46;10.63;;;7.07;;
45402;SDS011;47427;51.976;5.326;2022-07-03T02:01:28;8.68;;;5.32;;
45402;SDS011;47427;51.976;5.326;2022-07-03T02:05:29;8.02;;;5.80;;
45402;SDS011;47427;51.976;5.326;2022-07-03T02:09:01;7.75;;;5.75;;
45402;SDS011;47427;51.976;5.326;2022-07-03T02:12:38;7.47;;;5.78;;
45402;SDS011;47427;51.976;5.326;2022-07-03T02:16:10;11.27;;;6.93;;
45402;SDS011;47427;51.976;5.326;2022-07-03T02:19:48;6.88;;;6.18;;
45402;SDS011;47427;51.976;5.326;2022-07-03T02:23:24;7.88;;;5.68;;
45402;SDS011;47427;51.976;5.326;2022-07-03T02:26:53;7.15;;;5.78;;
45402;SDS011;47427;51.976;5.326;2022-07-03T02:30:26;6.80;;;5.63;;
45402;SDS011;47427;51.976;5.326;2022-07-03T02:33:52;7.68;;;5.43;;
45402;SDS011;47427;51.976;5.326;2022-07-03T02:37:20;5.82;;;5.22;;
45402;SDS011;47427;51.976;5.326;2022-07-03T02:44:34;9.77;;;5.88;;
45402;SDS011;47427;51.976;5.326;2022-07-03T02:48:18;6.70;;;5.22;;
45402;SDS011;47427;51.976;5.326;2022-07-03T02:52:14;6.93;;;5.38;;
45402;SDS011;47427;51.976;5.326;2022-07-03T02:55:44;8.32;;;5.13;;
45402;SDS011;47427;51.976;5.326;2022-07-03T02:59:14;6.13;;;4.90;;
45402;SDS011;47427;51.976;5.326;2022-07-03T03:02:53;8.32;;;6.45;;
45402;SDS011;47427;51.976;5.326;2022-07-03T03:06:17;10.23;;;4.75;;
45402;SDS011;47427;51.976;5.326;2022-07-03T03:09:42;8.73;;;5.23;;
45402;SDS011;47427;51.976;5.326;2022-07-03T03:13:07;7.03;;;5.28;;
45402;SDS011;47427;51.976;5.326;2022-07-03T03:16:31;7.07;;;4.43;;
45402;SDS011;47427;51.976;5.326;2022-07-03T03:19:57;5.20;;;4.70;;
45402;SDS011;47427;51.976;5.326;2022-07-03T03:27:12;7.72;;;5.10;;
45402;SDS011;47427;51.976;5.326;2022-07-03T03:30:36;8.65;;;4.50;;
45402;SDS011;47427;51.976;5.326;2022-07-03T03:33:58;9.32;;;5.10;;
45402;SDS011;47427;51.976;5.326;2022-07-03T03:37:20;8.30;;;4.63;;
45402;SDS011;47427;51.976;5.326;2022-07-03T03:40:42;8.77;;;4.03;;
45402;SDS011;47427;51.976;5.326;2022-07-03T03:44:05;6.60;;;4.15;;
45402;SDS011;47427;51.976;5.326;2022-07-03T03:47:28;4.68;;;4.10;;
45402;SDS011;47427;51.976;5.326;2022-07-03T03:50:51;5.85;;;3.75;;
45402;SDS011;47427;51.976;5.326;2022-07-03T03:54:13;4.57;;;3.60;;
45402;SDS011;47427;51.976;5.326;2022-07-03T03:57:37;5.30;;;3.97;;
45402;SDS011;47427;51.976;5.326;2022-07-03T04:00:59;6.60;;;4.20;;
45402;SDS011;47427;51.976;5.326;2022-07-03T04:04:23;7.30;;;4.22;;
45402;SDS011;47427;51.976;5.326;2022-07-03T04:07:46;5.95;;;3.67;;
45402;SDS011;47427;51.976;5.326;2022-07-03T04:11:08;4.57;;;3.35;;
45402;SDS011;47427;51.976;5.326;2022-07-03T04:14:31;4.43;;;3.30;;
45402;SDS011;47427;51.976;5.326;2022-07-03T04:17:54;7.55;;;3.33;;
45402;SDS011;47427;51.976;5.326;2022-07-03T04:21:15;5.70;;;3.20;;
45402;SDS011;47427;51.976;5.326;2022-07-03T04:24:38;3.83;;;2.88;;
45402;SDS011;47427;51.976;5.326;2022-07-03T04:27:59;4.22;;;3.00;;
45402;SDS011;47427;51.976;5.326;2022-07-03T04:31:22;7.65;;;3.20;;
45402;SDS011;47427;51.976;5.326;2022-07-03T04:34:45;5.40;;;2.60;;
45402;SDS011;47427;51.976;5.326;2022-07-03T04:38:06;8.00;;;2.80;;
45402;SDS011;47427;51.976;5.326;2022-07-03T04:41:29;6.70;;;2.70;;
45402;SDS011;47427;51.976;5.326;2022-07-03T04:44:52;7.10;;;2.42;;
45402;SDS011;47427;51.976;5.326;2022-07-03T04:48:15;4.15;;;2.90;;
45402;SDS011;47427;51.976;5.326;2022-07-03T04:51:37;11.63;;;3.20;;
45402;SDS011;47427;51.976;5.326;2022-07-03T04:54:59;9.55;;;2.67;;
45402;SDS011;47427;51.976;5.326;2022-07-03T04:58:22;5.43;;;2.00;;
45402;SDS011;47427;51.976;5.326;2022-07-03T05:01:45;7.38;;;2.10;;
45402;SDS011;47427;51.976;5.326;2022-07-03T05:05:09;5.80;;;2.90;;
45402;SDS011;47427;51.976;5.326;2022-07-03T05:08:32;5.93;;;1.80;;
45402;SDS011;47427;51.976;5.326;2022-07-03T05:11:55;7.00;;;2.72;;
45402;SDS011;47427;51.976;5.326;2022-07-03T05:15:17;4.93;;;1.85;;
45402;SDS011;47427;51.976;5.326;2022-07-03T05:18:40;6.47;;;2.17;;
45402;SDS011;47427;51.976;5.326;2022-07-03T05:22:02;3.45;;;2.00;;
45402;SDS011;47427;51.976;5.326;2022-07-03T05:25:25;7.72;;;1.88;;
45402;SDS011;47427;51.976;5.326;2022-07-03T05:28:50;8.00;;;1.52;;
45402;SDS011;47427;51.976;5.326;2022-07-03T05:32:13;10.55;;;2.00;;
45402;SDS011;47427;51.976;5.326;2022-07-03T05:35:35;7.80;;;1.80;;
45402;SDS011;47427;51.976;5.326;2022-07-03T05:38:58;6.80;;;1.75;;
45402;SDS011;47427;51.976;5.326;2022-07-03T05:42:39;5.03;;;1.88;;
45402;SDS011;47427;51.976;5.326;2022-07-03T05:46:02;6.10;;;2.20;;
45402;SDS011;47427;51.976;5.326;2022-07-03T05:49:24;9.93;;;2.90;;
45402;SDS011;47427;51.976;5.326;2022-07-03T05:52:47;7.38;;;1.65;;
45402;SDS011;47427;51.976;5.326;2022-07-03T05:56:09;11.10;;;2.42;;
45402;SDS011;47427;51.976;5.326;2022-07-03T05:59:31;9.75;;;2.05;;
45402;SDS011;47427;51.976;5.326;2022-07-03T06:02:54;9.52;;;2.33;;
45402;SDS011;47427;51.976;5.326;2022-07-03T06:06:16;10.27;;;2.47;;
45402;SDS011;47427;51.976;5.326;2022-07-03T06:09:38;7.93;;;2.47;;
45402;SDS011;47427;51.976;5.326;2022-07-03T06:13:01;5.43;;;2.00;;
45402;SDS011;47427;51.976;5.326;2022-07-03T06:16:24;8.38;;;1.90;;
45402;SDS011;47427;51.976;5.326;2022-07-03T06:19:47;7.95;;;1.75;;
45402;SDS011;47427;51.976;5.326;2022-07-03T06:23:08;8.38;;;2.72;;
45402;SDS011;47427;51.976;5.326;2022-07-03T06:26:31;9.55;;;3.10;;
45402;SDS011;47427;51.976;5.326;2022-07-03T06:29:54;7.70;;;2.83;;
45402;SDS011;47427;51.976;5.326;2022-07-03T06:33:15;7.43;;;2.33;;
45402;SDS011;47427;51.976;5.326;2022-07-03T06:36:39;9.07;;;2.25;;
45402;SDS011;47427;51.976;5.326;2022-07-03T06:40:01;7.88;;;3.05;;
45402;SDS011;47427;51.976;5.326;2022-07-03T06:43:23;12.55;;;2.90;;
45402;SDS011;47427;51.976;5.326;2022-07-03T06:46:46;17.70;;;3.25;;
45402;SDS011;47427;51.976;5.326;2022-07-03T06:50:08;9.02;;;2.95;;
45402;SDS011;47427;51.976;5.326;2022-07-03T06:53:31;5.63;;;2.40;;
45402;SDS011;47427;51.976;5.326;2022-07-03T06:56:52;9.00;;;2.28;;
45402;SDS011;47427;51.976;5.326;2022-07-03T07:00:15;8.95;;;2.67;;
45402;SDS011;47427;51.976;5.326;2022-07-03T07:03:38;7.22;;;2.53;;
45402;SDS011;47427;51.976;5.326;2022-07-03T07:06:59;13.82;;;3.58;;
45402;SDS011;47427;51.976;5.326;2022-07-03T07:10:22;6.18;;;2.40;;
45402;SDS011;47427;51.976;5.326;2022-07-03T07:13:45;10.40;;;3.25;;
45402;SDS011;47427;51.976;5.326;2022-07-03T07:17:08;8.02;;;2.78;;
45402;SDS011;47427;51.976;5.326;2022-07-03T07:20:31;8.32;;;2.25;;
45402;SDS011;47427;51.976;5.326;2022-07-03T07:23:52;8.38;;;2.67;;
45402;SDS011;47427;51.976;5.326;2022-07-03T07:27:15;9.15;;;3.15;;
45402;SDS011;47427;51.976;5.326;2022-07-03T07:30:38;11.90;;;2.70;;
45402;SDS011;47427;51.976;5.326;2022-07-03T07:34:00;10.13;;;2.85;;
45402;SDS011;47427;51.976;5.326;2022-07-03T07:37:26;5.20;;;2.25;;
45402;SDS011;47427;51.976;5.326;2022-07-03T07:40:47;8.32;;;2.30;;
45402;SDS011;47427;51.976;5.326;2022-07-03T07:44:10;9.20;;;2.10;;
45402;SDS011;47427;51.976;5.326;2022-07-03T07:47:33;6.88;;;2.13;;
45402;SDS011;47427;51.976;5.326;2022-07-03T07:50:54;9.35;;;2.67;;
45402;SDS011;47427;51.976;5.326;2022-07-03T07:54:17;6.80;;;2.00;;
45402;SDS011;47427;51.976;5.326;2022-07-03T07:57:39;12.88;;;2.92;;
45402;SDS011;47427;51.976;5.326;2022-07-03T08:01:03;8.07;;;2.38;;
45402;SDS011;47427;51.976;5.326;2022-07-03T08:04:44;5.82;;;2.15;;
45402;SDS011;47427;51.976;5.326;2022-07-03T08:08:24;13.80;;;3.33;;
45402;SDS011;47427;51.976;5.326;2022-07-03T08:11:47;6.95;;;2.38;;
45402;SDS011;47427;51.976;5.326;2022-07-03T08:15:10;7.03;;;2.10;;
45402;SDS011;47427;51.976;5.326;2022-07-03T08:18:33;4.55;;;1.95;;
45402;SDS011;47427;51.976;5.326;2022-07-03T08:21:56;4.88;;;2.33;;
45402;SDS011;47427;51.976;5.326;2022-07-03T08:25:17;6.90;;;2.70;;
45402;SDS011;47427;51.976;5.326;2022-07-03T08:28:40;5.70;;;2.00;;
45402;SDS011;47427;51.976;5.326;2022-07-03T08:32:03;5.70;;;2.60;;
45402;SDS011;47427;51.976;5.326;2022-07-03T08:35:26;7.07;;;2.42;;
45402;SDS011;47427;51.976;5.326;2022-07-03T08:38:49;7.70;;;1.90;;
45402;SDS011;47427;51.976;5.326;2022-07-03T08:42:11;6.32;;;2.13;;
45402;SDS011;47427;51.976;5.326;2022-07-03T08:45:34;6.47;;;1.80;;
45402;SDS011;47427;51.976;5.326;2022-07-03T08:48:59;4.90;;;1.80;;
45402;SDS011;47427;51.976;5.326;2022-07-03T08:52:22;5.72;;;2.10;;
45402;SDS011;47427;51.976;5.326;2022-07-03T08:55:49;3.55;;;1.48;;
45402;SDS011;47427;51.976;5.326;2022-07-03T08:59:12;2.90;;;1.77;;
45402;SDS011;47427;51.976;5.326;2022-07-03T09:02:57;3.70;;;1.40;;
45402;SDS011;47427;51.976;5.326;2022-07-03T09:06:21;3.85;;;1.55;;
45402;SDS011;47427;51.976;5.326;2022-07-03T09:09:42;4.68;;;2.20;;
45402;SDS011;47427;51.976;5.326;2022-07-03T09:13:06;2.63;;;1.70;;
45402;SDS011;47427;51.976;5.326;2022-07-03T09:16:28;9.35;;;2.50;;
45402;SDS011;47427;51.976;5.326;2022-07-03T09:19:51;4.10;;;2.10;;
45402;SDS011;47427;51.976;5.326;2022-07-03T09:23:16;6.28;;;1.90;;
45402;SDS011;47427;51.976;5.326;2022-07-03T09:41:29;5.32;;;1.98;;
45402;SDS011;47427;51.976;5.326;2022-07-03T09:45:21;6.05;;;2.22;;
45402;SDS011;47427;51.976;5.326;2022-07-03T09:48:42;7.30;;;2.35;;
45402;SDS011;47427;51.976;5.326;2022-07-03T09:52:05;4.07;;;1.95;;
45402;SDS011;47427;51.976;5.326;2022-07-03T09:55:28;5.82;;;2.20;;
45402;SDS011;47427;51.976;5.326;2022-07-03T10:02:32;4.43;;;1.77;;
45402;SDS011;47427;51.976;5.326;2022-07-03T10:05:55;4.65;;;1.95;;
45402;SDS011;47427;51.976;5.326;2022-07-03T10:09:28;5.07;;;1.75;;
45402;SDS011;47427;51.976;5.326;2022-07-03T10:12:55;4.68;;;1.63;;
45402;SDS011;47427;51.976;5.326;2022-07-03T10:16:17;4.00;;;1.23;;
45402;SDS011;47427;51.976;5.326;2022-07-03T10:19:40;6.25;;;1.75;;
45402;SDS011;47427;51.976;5.326;2022-07-03T10:23:03;4.05;;;1.90;;
45402;SDS011;47427;51.976;5.326;2022-07-03T10:26:26;4.00;;;1.85;;
45402;SDS011;47427;51.976;5.326;2022-07-03T10:29:48;2.85;;;1.70;;
45402;SDS011;47427;51.976;5.326;2022-07-03T10:33:14;3.03;;;1.50;;
45402;SDS011;47427;51.976;5.326;2022-07-03T10:36:36;5.22;;;1.75;;
45402;SDS011;47427;51.976;5.326;2022-07-03T10:40:07;2.92;;;1.60;;
45402;SDS011;47427;51.976;5.326;2022-07-03T10:44:00;2.80;;;1.63;;
45402;SDS011;47427;51.976;5.326;2022-07-03T10:47:48;3.15;;;1.80;;
45402;SDS011;47427;51.976;5.326;2022-07-03T10:51:12;4.93;;;1.75;;
45402;SDS011;47427;51.976;5.326;2022-07-03T10:54:36;2.28;;;1.63;;
45402;SDS011;47427;51.976;5.326;2022-07-03T10:58:12;8.55;;;1.70;;
45402;SDS011;47427;51.976;5.326;2022-07-03T11:01:35;1.63;;;1.30;;
45402;SDS011;47427;51.976;5.326;2022-07-03T11:08:20;4.63;;;1.85;;
45402;SDS011;47427;51.976;5.326;2022-07-03T11:11:42;2.50;;;1.55;;
45402;SDS011;47427;51.976;5.326;2022-07-03T11:19:12;2.63;;;1.70;;
45402;SDS011;47427;51.976;5.326;2022-07-03T11:22:38;6.00;;;1.50;;
45402;SDS011;47427;51.976;5.326;2022-07-03T11:29:36;6.03;;;2.20;;
45402;SDS011;47427;51.976;5.326;2022-07-03T11:32:59;5.10;;;2.08;;
45402;SDS011;47427;51.976;5.326;2022-07-03T11:39:53;13.95;;;2.17;;
45402;SDS011;47427;51.976;5.326;2022-07-03T11:43:22;6.43;;;2.88;;
45402;SDS011;47427;51.976;5.326;2022-07-03T11:46:46;4.00;;;2.10;;
45402;SDS011;47427;51.976;5.326;2022-07-03T11:50:11;4.25;;;1.67;;
45402;SDS011;47427;51.976;5.326;2022-07-03T11:53:35;4.47;;;2.45;;
45402;SDS011;47427;51.976;5.326;2022-07-03T11:56:59;1.67;;;1.25;;
45402;SDS011;47427;51.976;5.326;2022-07-03T12:00:21;5.80;;;2.17;;
45402;SDS011;47427;51.976;5.326;2022-07-03T12:03:43;2.70;;;2.00;;
45402;SDS011;47427;51.976;5.326;2022-07-03T12:07:04;2.78;;;1.77;;
45402;SDS011;47427;51.976;5.326;2022-07-03T12:10:36;1.85;;;1.52;;
45402;SDS011;47427;51.976;5.326;2022-07-03T12:13:59;4.32;;;3.10;;
45402;SDS011;47427;51.976;5.326;2022-07-03T12:17:23;2.70;;;1.38;;
45402;SDS011;47427;51.976;5.326;2022-07-03T12:20:46;6.82;;;4.10;;
45402;SDS011;47427;51.976;5.326;2022-07-03T12:24:10;4.25;;;2.95;;
45402;SDS011;47427;51.976;5.326;2022-07-03T12:27:43;3.70;;;1.92;;
45402;SDS011;47427;51.976;5.326;2022-07-03T12:31:05;2.72;;;1.45;;
45402;SDS011;47427;51.976;5.326;2022-07-03T12:34:29;4.50;;;3.55;;
45402;SDS011;47427;51.976;5.326;2022-07-03T12:37:50;4.35;;;2.00;;
45402;SDS011;47427;51.976;5.326;2022-07-03T12:41:13;3.03;;;1.80;;
45402;SDS011;47427;51.976;5.326;2022-07-03T12:44:37;5.17;;;2.43;;
45402;SDS011;47427;51.976;5.326;2022-07-03T12:48:00;4.80;;;1.75;;
45402;SDS011;47427;51.976;5.326;2022-07-03T12:51:40;3.50;;;2.10;;
45402;SDS011;47427;51.976;5.326;2022-07-03T12:55:04;6.30;;;2.08;;
45402;SDS011;47427;51.976;5.326;2022-07-03T12:58:28;4.28;;;1.90;;
45402;SDS011;47427;51.976;5.326;2022-07-03T13:02:09;4.15;;;2.10;;
45402;SDS011;47427;51.976;5.326;2022-07-03T13:05:31;1.98;;;1.52;;
45402;SDS011;47427;51.976;5.326;2022-07-03T13:08:53;6.57;;;2.20;;
45402;SDS011;47427;51.976;5.326;2022-07-03T13:12:22;4.75;;;1.95;;
45402;SDS011;47427;51.976;5.326;2022-07-03T13:15:44;3.90;;;1.85;;
45402;SDS011;47427;51.976;5.326;2022-07-03T13:19:05;6.70;;;2.85;;
45402;SDS011;47427;51.976;5.326;2022-07-03T13:22:28;6.72;;;2.40;;
45402;SDS011;47427;51.976;5.326;2022-07-03T13:25:49;4.35;;;2.22;;
45402;SDS011;47427;51.976;5.326;2022-07-03T13:29:13;5.90;;;1.92;;
45402;SDS011;47427;51.976;5.326;2022-07-03T13:32:55;3.13;;;1.80;;
45402;SDS011;47427;51.976;5.326;2022-07-03T13:36:18;8.98;;;2.30;;
45402;SDS011;47427;51.976;5.326;2022-07-03T13:39:41;3.28;;;1.67;;
45402;SDS011;47427;51.976;5.326;2022-07-03T13:43:03;5.47;;;2.33;;
45402;SDS011;47427;51.976;5.326;2022-07-03T13:46:25;2.63;;;1.83;;
45402;SDS011;47427;51.976;5.326;2022-07-03T13:49:48;5.93;;;2.20;;
45402;SDS011;47427;51.976;5.326;2022-07-03T13:53:10;5.35;;;2.13;;
45402;SDS011;47427;51.976;5.326;2022-07-03T13:56:34;3.05;;;1.98;;
45402;SDS011;47427;51.976;5.326;2022-07-03T13:59:55;7.32;;;1.90;;
45402;SDS011;47427;51.976;5.326;2022-07-03T14:03:18;4.45;;;2.13;;
45402;SDS011;47427;51.976;5.326;2022-07-03T14:06:40;5.35;;;1.73;;
45402;SDS011;47427;51.976;5.326;2022-07-03T14:10:02;5.80;;;2.38;;
45402;SDS011;47427;51.976;5.326;2022-07-03T14:13:25;6.05;;;2.22;;
45402;SDS011;47427;51.976;5.326;2022-07-03T14:16:47;4.60;;;1.83;;
45402;SDS011;47427;51.976;5.326;2022-07-03T14:20:10;2.70;;;1.70;;
45402;SDS011;47427;51.976;5.326;2022-07-03T14:23:34;4.13;;;1.85;;
45402;SDS011;47427;51.976;5.326;2022-07-03T14:26:56;4.22;;;2.00;;
45402;SDS011;47427;51.976;5.326;2022-07-03T14:30:38;3.72;;;2.13;;
45402;SDS011;47427;51.976;5.326;2022-07-03T14:34:17;4.55;;;1.90;;
45402;SDS011;47427;51.976;5.326;2022-07-03T14:37:40;6.28;;;2.38;;
45402;SDS011;47427;51.976;5.326;2022-07-03T14:41:03;2.58;;;1.17;;
45402;SDS011;47427;51.976;5.326;2022-07-03T14:44:24;5.68;;;2.08;;
45402;SDS011;47427;51.976;5.326;2022-07-03T14:47:48;2.78;;;1.50;;
45402;SDS011;47427;51.976;5.326;2022-07-03T14:51:09;4.13;;;1.75;;
45402;SDS011;47427;51.976;5.326;2022-07-03T14:54:32;2.83;;;1.50;;
45402;SDS011;47427;51.976;5.326;2022-07-03T14:58:02;5.88;;;1.60;;
45402;SDS011;47427;51.976;5.326;2022-07-03T15:01:28;3.22;;;1.40;;
45402;SDS011;47427;51.976;5.326;2022-07-03T15:05:05;4.65;;;1.50;;
45402;SDS011;47427;51.976;5.326;2022-07-03T15:08:52;3.45;;;1.63;;
45402;SDS011;47427;51.976;5.326;2022-07-03T15:12:23;3.10;;;1.70;;
45402;SDS011;47427;51.976;5.326;2022-07-03T15:15:49;8.00;;;2.05;;
45402;SDS011;47427;51.976;5.326;2022-07-03T15:19:12;3.20;;;1.90;;
45402;SDS011;47427;51.976;5.326;2022-07-03T15:22:40;3.25;;;1.88;;
45402;SDS011;47427;51.976;5.326;2022-07-03T15:26:05;1.98;;;1.40;;
45402;SDS011;47427;51.976;5.326;2022-07-03T15:29:26;2.03;;;1.20;;
45402;SDS011;47427;51.976;5.326;2022-07-03T15:32:50;3.67;;;1.83;;
45402;SDS011;47427;51.976;5.326;2022-07-03T15:36:14;4.28;;;1.75;;
45402;SDS011;47427;51.976;5.326;2022-07-03T15:39:42;6.13;;;1.63;;
45402;SDS011;47427;51.976;5.326;2022-07-03T15:51:22;5.05;;;1.65;;
45402;SDS011;47427;51.976;5.326;2022-07-03T15:55:21;5.25;;;1.88;;
45402;SDS011;47427;51.976;5.326;2022-07-03T15:58:45;3.55;;;1.70;;
45402;SDS011;47427;51.976;5.326;2022-07-03T16:02:11;4.78;;;1.77;;
45402;SDS011;47427;51.976;5.326;2022-07-03T16:05:45;3.05;;;1.30;;
45402;SDS011;47427;51.976;5.326;2022-07-03T16:09:07;5.22;;;1.42;;
45402;SDS011;47427;51.976;5.326;2022-07-03T16:12:30;3.20;;;1.30;;
45402;SDS011;47427;51.976;5.326;2022-07-03T16:15:52;2.80;;;1.33;;
45402;SDS011;47427;51.976;5.326;2022-07-03T16:19:20;4.60;;;1.65;;
45402;SDS011;47427;51.976;5.326;2022-07-03T16:22:44;5.50;;;1.30;;
45402;SDS011;47427;51.976;5.326;2022-07-03T16:26:07;2.20;;;1.23;;
45402;SDS011;47427;51.976;5.326;2022-07-03T16:29:31;4.25;;;1.52;;
45402;SDS011;47427;51.976;5.326;2022-07-03T16:32:54;3.67;;;1.60;;
45402;SDS011;47427;51.976;5.326;2022-07-03T16:36:19;3.30;;;1.25;;
45402;SDS011;47427;51.976;5.326;2022-07-03T16:39:42;3.58;;;1.40;;
45402;SDS011;47427;51.976;5.326;2022-07-03T16:43:08;6.75;;;1.90;;
45402;SDS011;47427;51.976;5.326;2022-07-03T16:46:32;2.45;;;1.40;;
45402;SDS011;47427;51.976;5.326;2022-07-03T16:50:00;2.75;;;1.20;;
45402;SDS011;47427;51.976;5.326;2022-07-03T16:53:22;2.28;;;1.10;;
45402;SDS011;47427;51.976;5.326;2022-07-03T16:56:43;4.15;;;1.70;;
45402;SDS011;47427;51.976;5.326;2022-07-03T17:00:07;3.78;;;1.70;;
45402;SDS011;47427;51.976;5.326;2022-07-03T17:03:33;5.20;;;1.45;;
45402;SDS011;47427;51.976;5.326;2022-07-03T17:06:55;4.47;;;1.55;;
45402;SDS011;47427;51.976;5.326;2022-07-03T17:10:18;5.28;;;3.25;;
45402;SDS011;47427;51.976;5.326;2022-07-03T17:13:47;3.17;;;2.00;;
45402;SDS011;47427;51.976;5.326;2022-07-03T17:17:14;3.90;;;1.30;;
45402;SDS011;47427;51.976;5.326;2022-07-03T17:21:00;4.50;;;1.83;;
45402;SDS011;47427;51.976;5.326;2022-07-03T17:24:26;3.53;;;2.00;;
45402;SDS011;47427;51.976;5.326;2022-07-03T17:27:52;5.03;;;1.60;;
45402;SDS011;47427;51.976;5.326;2022-07-03T17:31:20;6.13;;;3.05;;
45402;SDS011;47427;51.976;5.326;2022-07-03T17:34:47;6.03;;;1.85;;
45402;SDS011;47427;51.976;5.326;2022-07-03T17:38:14;3.25;;;1.42;;
45402;SDS011;47427;51.976;5.326;2022-07-03T17:41:37;5.45;;;1.50;;
45402;SDS011;47427;51.976;5.326;2022-07-03T17:45:00;5.72;;;1.90;;
45402;SDS011;47427;51.976;5.326;2022-07-03T17:48:24;6.30;;;1.58;;
45402;SDS011;47427;51.976;5.326;2022-07-03T17:51:49;4.28;;;1.83;;
45402;SDS011;47427;51.976;5.326;2022-07-03T17:55:13;6.43;;;2.10;;
45402;SDS011;47427;51.976;5.326;2022-07-03T17:58:39;5.78;;;1.90;;
45402;SDS011;47427;51.976;5.326;2022-07-03T18:02:08;5.43;;;1.48;;
45402;SDS011;47427;51.976;5.326;2022-07-03T18:05:34;5.72;;;1.75;;
45402;SDS011;47427;51.976;5.326;2022-07-03T18:08:57;9.63;;;1.85;;
45402;SDS011;47427;51.976;5.326;2022-07-03T18:16:59;6.97;;;1.92;;
45402;SDS011;47427;51.976;5.326;2022-07-03T18:20:21;5.05;;;1.52;;
45402;SDS011;47427;51.976;5.326;2022-07-03T18:23:52;4.22;;;1.73;;
45402;SDS011;47427;51.976;5.326;2022-07-03T18:27:15;5.13;;;1.65;;
45402;SDS011;47427;51.976;5.326;2022-07-03T18:30:37;4.97;;;1.65;;
45402;SDS011;47427;51.976;5.326;2022-07-03T18:34:01;4.28;;;1.33;;
45402;SDS011;47427;51.976;5.326;2022-07-03T18:37:22;5.85;;;1.75;;
45402;SDS011;47427;51.976;5.326;2022-07-03T18:40:45;4.40;;;1.48;;
45402;SDS011;47427;51.976;5.326;2022-07-03T18:44:10;2.72;;;1.40;;
45402;SDS011;47427;51.976;5.326;2022-07-03T18:47:33;2.67;;;1.35;;
45402;SDS011;47427;51.976;5.326;2022-07-03T18:51:09;4.10;;;1.77;;
45402;SDS011;47427;51.976;5.326;2022-07-03T19:02:18;3.97;;;1.70;;
45402;SDS011;47427;51.976;5.326;2022-07-03T19:05:53;5.95;;;1.73;;
45402;SDS011;47427;51.976;5.326;2022-07-03T19:09:23;7.40;;;1.92;;
45402;SDS011;47427;51.976;5.326;2022-07-03T19:12:59;4.97;;;1.50;;
45402;SDS011;47427;51.976;5.326;2022-07-03T19:16:29;6.07;;;1.90;;
45402;SDS011;47427;51.976;5.326;2022-07-03T19:20:01;5.63;;;2.13;;
45402;SDS011;47427;51.976;5.326;2022-07-03T19:23:25;3.67;;;1.70;;
45402;SDS011;47427;51.976;5.326;2022-07-03T19:26:48;6.10;;;1.90;;
45402;SDS011;47427;51.976;5.326;2022-07-03T19:30:13;10.25;;;1.92;;
45402;SDS011;47427;51.976;5.326;2022-07-03T19:33:37;7.47;;;2.20;;
45402;SDS011;47427;51.976;5.326;2022-07-03T19:37:00;8.13;;;1.88;;
45402;SDS011;47427;51.976;5.326;2022-07-03T19:40:22;6.55;;;2.00;;
45402;SDS011;47427;51.976;5.326;2022-07-03T19:43:44;2.95;;;1.92;;
45402;SDS011;47427;51.976;5.326;2022-07-03T19:47:07;9.73;;;2.53;;
45402;SDS011;47427;51.976;5.326;2022-07-03T19:50:29;5.25;;;2.35;;
45402;SDS011;47427;51.976;5.326;2022-07-03T19:53:52;9.30;;;2.05;;
45402;SDS011;47427;51.976;5.326;2022-07-03T19:57:14;3.47;;;1.80;;
45402;SDS011;47427;51.976;5.326;2022-07-03T20:00:36;4.15;;;1.80;;
45402;SDS011;47427;51.976;5.326;2022-07-03T20:03:58;5.75;;;2.10;;
45402;SDS011;47427;51.976;5.326;2022-07-03T20:07:20;8.25;;;2.13;;
45402;SDS011;47427;51.976;5.326;2022-07-03T20:10:44;5.15;;;2.25;;
45402;SDS011;47427;51.976;5.326;2022-07-03T20:14:07;3.75;;;1.80;;
45402;SDS011;47427;51.976;5.326;2022-07-03T20:17:29;5.28;;;1.90;;
45402;SDS011;47427;51.976;5.326;2022-07-03T20:20:51;5.43;;;2.50;;
45402;SDS011;47427;51.976;5.326;2022-07-03T20:24:13;6.25;;;2.50;;
45402;SDS011;47427;51.976;5.326;2022-07-03T20:27:59;5.65;;;2.88;;
45402;SDS011;47427;51.976;5.326;2022-07-03T20:31:24;7.55;;;2.88;;
45402;SDS011;47427;51.976;5.326;2022-07-03T20:34:47;8.07;;;3.17;;
45402;SDS011;47427;51.976;5.326;2022-07-03T20:38:11;5.70;;;3.20;;
45402;SDS011;47427;51.976;5.326;2022-07-03T20:41:34;9.77;;;3.17;;
45402;SDS011;47427;51.976;5.326;2022-07-03T20:44:57;7.85;;;2.70;;
45402;SDS011;47427;51.976;5.326;2022-07-03T20:48:20;7.88;;;3.13;;
45402;SDS011;47427;51.976;5.326;2022-07-03T20:51:42;9.10;;;3.10;;
45402;SDS011;47427;51.976;5.326;2022-07-03T20:55:06;9.23;;;3.33;;
45402;SDS011;47427;51.976;5.326;2022-07-03T20:58:28;7.05;;;2.80;;
45402;SDS011;47427;51.976;5.326;2022-07-03T21:01:51;8.35;;;3.42;;
45402;SDS011;47427;51.976;5.326;2022-07-03T21:05:14;8.43;;;3.50;;
45402;SDS011;47427;51.976;5.326;2022-07-03T21:08:35;10.52;;;3.65;;
45402;SDS011;47427;51.976;5.326;2022-07-03T21:11:59;7.25;;;3.75;;
45402;SDS011;47427;51.976;5.326;2022-07-03T21:15:21;10.70;;;3.55;;
45402;SDS011;47427;51.976;5.326;2022-07-03T21:18:44;4.68;;;3.53;;
45402;SDS011;47427;51.976;5.326;2022-07-03T21:22:07;7.05;;;3.63;;
45402;SDS011;47427;51.976;5.326;2022-07-03T21:25:28;9.80;;;3.70;;
45402;SDS011;47427;51.976;5.326;2022-07-03T21:28:52;5.00;;;3.75;;
45402;SDS011;47427;51.976;5.326;2022-07-03T21:32:16;8.25;;;4.18;;
45402;SDS011;47427;51.976;5.326;2022-07-03T21:35:37;8.60;;;3.95;;
45402;SDS011;47427;51.976;5.326;2022-07-03T21:39:00;9.32;;;4.10;;
45402;SDS011;47427;51.976;5.326;2022-07-03T21:42:22;8.07;;;4.45;;
45402;SDS011;47427;51.976;5.326;2022-07-03T21:45:45;5.75;;;3.90;;
45402;SDS011;47427;51.976;5.326;2022-07-03T21:49:08;7.70;;;4.53;;